createdAt,value
2023-04-02T00:00:43.426Z,98318.00
2023-04-02T00:01:43.470Z,98319.00
2023-04-02T00:02:43.512Z,98319.00
2023-04-02T00:03:43.512Z,98319.00
2023-04-02T00:04:43.462Z,98316.00
2023-04-02T00:05:43.440Z,98319.00
2023-04-02T00:06:43.476Z,98326.00
2023-04-02T00:07:43.486Z,98321.00
2023-04-02T00:08:43.498Z,98323.00
2023-04-02T00:09:43.532Z,98327.00
2023-04-02T00:10:43.549Z,98328.00
2023-04-02T00:11:43.577Z,98329.00
2023-04-02T00:12:43.585Z,98330.00
2023-04-02T00:13:43.615Z,98323.00
2023-04-02T00:14:43.624Z,98329.00
2023-04-02T00:15:43.665Z,98334.00
2023-04-02T00:16:43.960Z,98334.00
2023-04-02T00:17:43.670Z,98339.00
2023-04-02T00:18:43.703Z,98336.00
2023-04-02T00:19:43.719Z,98343.00
2023-04-02T00:20:43.744Z,98348.00
2023-04-02T00:21:43.771Z,98349.00
2023-04-02T00:22:43.816Z,98349.00
2023-04-02T00:23:43.844Z,98342.00
2023-04-02T00:24:43.802Z,98351.00
2023-04-02T00:25:43.777Z,98353.00
2023-04-02T00:26:43.792Z,98356.00
2023-04-02T00:27:43.828Z,98350.00
2023-04-02T00:28:43.807Z,98348.00
2023-04-02T00:29:43.837Z,98355.00
2023-04-02T00:30:43.853Z,98355.00
2023-04-02T00:31:43.888Z,98357.00
2023-04-02T00:32:43.911Z,98355.00
2023-04-02T00:33:43.921Z,98358.00
2023-04-02T00:34:43.945Z,98361.00
2023-04-02T00:35:43.990Z,98358.00
2023-04-02T00:36:43.964Z,98359.00
2023-04-02T00:37:43.977Z,98355.00
2023-04-02T00:38:44.297Z,98359.00
2023-04-02T00:39:44.003Z,98360.00
2023-04-02T00:40:44.027Z,98359.00
2023-04-02T00:41:44.048Z,98360.00
2023-04-02T00:42:44.070Z,98359.00
2023-04-02T00:43:44.091Z,98360.00
2023-04-02T00:44:44.126Z,98360.00
2023-04-02T00:45:44.185Z,98360.00
2023-04-02T00:46:44.173Z,98362.00
2023-04-02T00:47:44.198Z,98359.00
2023-04-02T00:48:44.192Z,98361.00
2023-04-02T00:49:44.217Z,98362.00
2023-04-02T00:50:44.264Z,98361.00
2023-04-02T00:51:44.263Z,98363.00
2023-04-02T00:52:44.252Z,98366.00
2023-04-02T00:53:44.264Z,98368.00
2023-04-02T00:54:44.306Z,98364.00
2023-04-02T00:55:44.321Z,98364.00
2023-04-02T00:56:44.344Z,98366.00
2023-04-02T00:57:44.362Z,98367.00
2023-04-02T00:58:44.378Z,98366.00
2023-04-02T00:59:44.441Z,98359.00
2023-04-02T01:00:44.393Z,98363.00
2023-04-02T01:01:44.438Z,98367.00
2023-04-02T01:02:44.537Z,98367.00
2023-04-02T01:03:44.612Z,98366.00
2023-04-02T01:04:44.430Z,98369.00
2023-04-02T01:05:44.423Z,98371.00
2023-04-02T01:06:44.449Z,98368.00
2023-04-02T01:07:44.500Z,98371.00
2023-04-02T01:08:44.476Z,98373.00
2023-04-02T01:09:44.500Z,98374.00
2023-04-02T01:10:44.556Z,98376.00
2023-04-02T01:11:44.528Z,98377.00
2023-04-02T01:12:44.520Z,98378.00
2023-04-02T01:13:44.544Z,98378.00
2023-04-02T01:14:44.615Z,98378.00
2023-04-02T01:15:44.592Z,98379.00
2023-04-02T01:16:44.579Z,98380.00
2023-04-02T01:17:44.655Z,98378.00
2023-04-02T01:18:44.590Z,98381.00
2023-04-02T01:19:44.614Z,98381.00
2023-04-02T01:20:44.641Z,98384.00
2023-04-02T01:21:44.667Z,98382.00
2023-04-02T01:22:44.633Z,98382.00
2023-04-02T01:23:44.655Z,98383.00
2023-04-02T01:24:44.677Z,98386.00
2023-04-02T01:25:44.698Z,98387.00
2023-04-02T01:26:44.763Z,98388.00
2023-04-02T01:27:44.713Z,98384.00
2023-04-02T01:28:44.733Z,98383.00
2023-04-02T01:29:44.754Z,98389.00
2023-04-02T01:30:44.761Z,98384.00
2023-04-02T01:31:44.980Z,98387.00
2023-04-02T01:32:44.866Z,98387.00
2023-04-02T01:33:44.808Z,98390.00
2023-04-02T01:34:44.825Z,98390.00
2023-04-02T01:35:44.877Z,98392.00
2023-04-02T01:36:44.867Z,98390.00
2023-04-02T01:37:44.957Z,98391.00
2023-04-02T01:38:44.837Z,98398.00
2023-04-02T01:39:44.852Z,98393.00
2023-04-02T01:40:44.872Z,98396.00
2023-04-02T01:41:44.900Z,98401.00
2023-04-02T01:42:44.941Z,98404.00
2023-04-02T01:43:44.917Z,98401.00
2023-04-02T01:44:44.920Z,98401.00
2023-04-02T01:45:45.171Z,98409.00
2023-04-02T01:46:45.027Z,98407.00
2023-04-02T01:47:44.987Z,98407.00
2023-04-02T01:48:44.984Z,98411.00
2023-04-02T01:49:45.004Z,98405.00
2023-04-02T01:50:45.017Z,98415.00
2023-04-02T01:51:45.030Z,98411.00
2023-04-02T01:52:45.060Z,98416.00
2023-04-02T01:53:45.071Z,98410.00
2023-04-02T01:54:45.089Z,98412.00
2023-04-02T01:55:45.116Z,98414.00
2023-04-02T01:56:45.127Z,98416.00
2023-04-02T01:57:45.145Z,98417.00
2023-04-02T01:58:45.203Z,98418.00
2023-04-02T01:59:45.171Z,98421.00
2023-04-02T02:00:45.272Z,98420.00
2023-04-02T02:01:45.244Z,98423.00
2023-04-02T02:02:45.297Z,98422.00
2023-04-02T02:03:45.230Z,98422.00
2023-04-02T02:04:45.223Z,98423.00
2023-04-02T02:05:45.241Z,98428.00
2023-04-02T02:06:45.256Z,98424.00
2023-04-02T02:07:45.280Z,98418.00
2023-04-02T02:08:45.309Z,98424.00
2023-04-02T02:09:45.329Z,98425.00
2023-04-02T02:10:45.340Z,98427.00
2023-04-02T02:11:45.353Z,98428.00
2023-04-02T02:12:45.386Z,98432.00
2023-04-02T02:13:45.401Z,98425.00
2023-04-02T02:14:45.450Z,98435.00
2023-04-02T02:15:45.423Z,98436.00
2023-04-02T02:16:45.541Z,98434.00
2023-04-02T02:17:45.500Z,98438.00
2023-04-02T02:18:45.475Z,98437.00
2023-04-02T02:19:45.500Z,98440.00
2023-04-02T02:20:45.479Z,98448.00
2023-04-02T02:21:45.503Z,98445.00
2023-04-02T02:22:45.525Z,98446.00
2023-04-02T02:23:45.551Z,98447.00
2023-04-02T02:24:45.556Z,98449.00
2023-04-02T02:25:45.590Z,98448.00
2023-04-02T02:26:45.571Z,98450.00
2023-04-02T02:27:45.597Z,98453.00
2023-04-02T02:28:45.571Z,98454.00
2023-04-02T02:29:45.597Z,98453.00
2023-04-02T02:30:45.653Z,98458.00
2023-04-02T02:31:45.899Z,98456.00
2023-04-02T02:32:45.645Z,98457.00
2023-04-02T02:33:45.653Z,98460.00
2023-04-02T02:34:45.675Z,98456.00
2023-04-02T02:35:45.723Z,98459.00
2023-04-02T02:36:45.685Z,98463.00
2023-04-02T02:37:45.720Z,98462.00
2023-04-02T02:38:45.731Z,98463.00
2023-04-02T02:39:45.750Z,98466.00
2023-04-02T02:40:45.770Z,98462.00
2023-04-02T02:41:45.792Z,98466.00
2023-04-02T02:42:45.789Z,98467.00
2023-04-02T02:43:45.786Z,98472.00
2023-04-02T02:44:45.757Z,98470.00
2023-04-02T02:45:45.800Z,98468.00
2023-04-02T02:46:45.837Z,98471.00
2023-04-02T02:47:45.893Z,98475.00
2023-04-02T02:48:45.851Z,98473.00
2023-04-02T02:49:45.823Z,98471.00
2023-04-02T02:50:45.844Z,98473.00
2023-04-02T02:51:45.878Z,98476.00
2023-04-02T02:52:45.891Z,98473.00
2023-04-02T02:53:45.902Z,98474.00
2023-04-02T02:54:45.916Z,98478.00
2023-04-02T02:55:45.949Z,98481.00
2023-04-02T02:56:45.980Z,98479.00
2023-04-02T02:57:45.999Z,98478.00
2023-04-02T02:58:46.032Z,98485.00
2023-04-02T02:59:46.039Z,98477.00
2023-04-02T03:00:46.067Z,98486.00
2023-04-02T03:01:46.164Z,98481.00
2023-04-02T03:02:46.251Z,98479.00
2023-04-02T03:03:46.178Z,98484.00
2023-04-02T03:04:46.097Z,98483.00
2023-04-02T03:05:46.117Z,98484.00
2023-04-02T03:06:46.292Z,98482.00
2023-04-02T03:07:46.117Z,98487.00
2023-04-02T03:08:46.145Z,98483.00
2023-04-02T03:09:46.166Z,98481.00
2023-04-02T03:10:46.174Z,98489.00
2023-04-02T03:11:46.441Z,98492.00
2023-04-02T03:12:46.228Z,98491.00
2023-04-02T03:13:46.238Z,98493.00
2023-04-02T03:14:46.306Z,98495.00
2023-04-02T03:15:46.303Z,98496.00
2023-04-02T03:16:46.265Z,98497.00
2023-04-02T03:17:46.363Z,98493.00
2023-04-02T03:18:46.309Z,98496.00
2023-04-02T03:19:46.290Z,98495.00
2023-04-02T03:20:46.305Z,98497.00
2023-04-02T03:21:46.329Z,98493.00
2023-04-02T03:22:46.351Z,98496.00
2023-04-02T03:23:46.370Z,98497.00
2023-04-02T03:24:46.382Z,98499.00
2023-04-02T03:25:46.409Z,98498.00
2023-04-02T03:26:46.438Z,98502.00
2023-04-02T03:27:46.444Z,98502.00
2023-04-02T03:28:46.447Z,98505.00
2023-04-02T03:29:46.442Z,98505.00
2023-04-02T03:30:46.465Z,98509.00
2023-04-02T03:31:46.535Z,98505.00
2023-04-02T03:32:46.626Z,98511.00
2023-04-02T03:33:46.492Z,98504.00
2023-04-02T03:34:46.536Z,98511.00
2023-04-02T03:35:46.558Z,98509.00
2023-04-02T03:36:46.544Z,98509.00
2023-04-02T03:37:46.528Z,98510.00
2023-04-02T03:38:46.554Z,98512.00
2023-04-02T03:39:46.563Z,98515.00
2023-04-02T03:40:46.628Z,98518.00
2023-04-02T03:41:46.603Z,98521.00
2023-04-02T03:42:46.624Z,98521.00
2023-04-02T03:43:46.646Z,98525.00
2023-04-02T03:44:46.672Z,98525.00
2023-04-02T03:45:46.674Z,98524.00
2023-04-02T03:46:46.704Z,98525.00
2023-04-02T03:47:46.752Z,98527.00
2023-04-02T03:48:46.698Z,98528.00
2023-04-02T03:49:46.719Z,98527.00
2023-04-02T03:50:46.775Z,98532.00
2023-04-02T03:51:46.742Z,98531.00
2023-04-02T03:52:46.753Z,98533.00
2023-04-02T03:53:46.791Z,98531.00
2023-04-02T03:54:54.074Z,98534.00
2023-04-02T03:55:46.773Z,98533.00
2023-04-02T03:56:46.802Z,98537.00
2023-04-02T03:57:46.794Z,98535.00
2023-04-02T03:58:46.819Z,98541.00
2023-04-02T03:59:47.195Z,98538.00
2023-04-02T04:00:46.872Z,98535.00
2023-04-02T04:01:46.995Z,98538.00
2023-04-02T04:02:46.893Z,98539.00
2023-04-02T04:03:46.916Z,98539.00
2023-04-02T04:04:46.915Z,98540.00
2023-04-02T04:05:46.939Z,98541.00
2023-04-02T04:06:46.993Z,98545.00
2023-04-02T04:07:46.954Z,98547.00
2023-04-02T04:08:46.974Z,98547.00
2023-04-02T04:09:47.011Z,98547.00
2023-04-02T04:10:47.276Z,98547.00
2023-04-02T04:11:47.034Z,98548.00
2023-04-02T04:12:47.034Z,98552.00
2023-04-02T04:13:47.045Z,98552.00
2023-04-02T04:14:47.077Z,98552.00
2023-04-02T04:15:47.054Z,98557.00
2023-04-02T04:16:47.083Z,98557.00
2023-04-02T04:17:47.116Z,98561.00
2023-04-02T04:18:47.108Z,98558.00
2023-04-02T04:19:47.102Z,98566.00
2023-04-02T04:20:47.137Z,98565.00
2023-04-02T04:21:47.105Z,98565.00
2023-04-02T04:22:47.148Z,98566.00
2023-04-02T04:23:47.126Z,98569.00
2023-04-02T04:24:47.156Z,98569.00
2023-04-02T04:25:47.134Z,98568.00
2023-04-02T04:26:47.139Z,98576.00
2023-04-02T04:27:47.152Z,98577.00
2023-04-02T04:28:47.190Z,98577.00
2023-04-02T04:29:47.167Z,98583.00
2023-04-02T04:30:47.186Z,98578.00
2023-04-02T04:31:47.423Z,98588.00
2023-04-02T04:32:47.245Z,98592.00
2023-04-02T04:33:47.204Z,98592.00
2023-04-02T04:34:47.221Z,98593.00
2023-04-02T04:35:47.306Z,98598.00
2023-04-02T04:36:47.261Z,98599.00
2023-04-02T04:37:47.267Z,98600.00
2023-04-02T04:38:47.304Z,98601.00
2023-04-02T04:39:47.312Z,98600.00
2023-04-02T04:40:47.338Z,98604.00
2023-04-02T04:41:47.353Z,98605.00
2023-04-02T04:42:47.335Z,98607.00
2023-04-02T04:43:47.366Z,98604.00
2023-04-02T04:44:47.380Z,98609.00
2023-04-02T04:45:47.442Z,98611.00
2023-04-02T04:46:47.413Z,98614.00
2023-04-02T04:47:47.441Z,98618.00
2023-04-02T04:48:47.382Z,98619.00
2023-04-02T04:49:47.419Z,98624.00
2023-04-02T04:50:47.393Z,98618.00
2023-04-02T04:51:47.421Z,98623.00
2023-04-02T04:52:47.400Z,98627.00
2023-04-02T04:53:47.418Z,98624.00
2023-04-02T04:54:47.433Z,98623.00
2023-04-02T04:55:47.421Z,98625.00
2023-04-02T04:56:47.476Z,98624.00
2023-04-02T04:57:47.400Z,98626.00
2023-04-02T04:58:47.418Z,98622.00
2023-04-02T04:59:47.441Z,98626.00
2023-04-02T05:00:49.099Z,98627.00
2023-04-02T05:01:47.563Z,98630.00
2023-04-02T05:02:47.571Z,98630.00
2023-04-02T05:03:47.478Z,98631.00
2023-04-02T05:04:47.485Z,98630.00
2023-04-02T05:05:47.451Z,98634.00
2023-04-02T05:06:47.463Z,98635.00
2023-04-02T05:07:47.488Z,98638.00
2023-04-02T05:08:47.511Z,98633.00
2023-04-02T05:09:47.519Z,98637.00
2023-04-02T05:10:47.540Z,98640.00
2023-04-02T05:11:47.506Z,98635.00
2023-04-02T05:12:47.523Z,98638.00
2023-04-02T05:13:47.553Z,98642.00
2023-04-02T05:14:47.567Z,98643.00
2023-04-02T05:15:47.654Z,98646.00
2023-04-02T05:16:47.587Z,98646.00
2023-04-02T05:17:47.667Z,98646.00
2023-04-02T05:18:47.626Z,98649.00
2023-04-02T05:19:47.599Z,98648.00
2023-04-02T05:20:47.631Z,98653.00
2023-04-02T05:21:47.644Z,98651.00
2023-04-02T05:22:47.682Z,98654.00
2023-04-02T05:23:47.699Z,98656.00
2023-04-02T05:24:47.714Z,98658.00
2023-04-02T05:25:47.733Z,98659.00
2023-04-02T05:26:47.771Z,98656.00
2023-04-02T05:27:47.762Z,98660.00
2023-04-02T05:28:47.761Z,98663.00
2023-04-02T05:29:47.808Z,98667.00
2023-04-02T05:30:47.787Z,98664.00
2023-04-02T05:31:47.847Z,98666.00
2023-04-02T05:32:47.818Z,98669.00
2023-04-02T05:33:47.795Z,98668.00
2023-04-02T05:34:47.829Z,98668.00
2023-04-02T05:35:47.879Z,98675.00
2023-04-02T05:36:47.851Z,98678.00
2023-04-02T05:37:47.872Z,98679.00
2023-04-02T05:38:47.881Z,98675.00
2023-04-02T05:39:47.872Z,98682.00
2023-04-02T05:40:47.888Z,98680.00
2023-04-02T05:41:47.874Z,98684.00
2023-04-02T05:42:47.928Z,98682.00
2023-04-02T05:43:47.902Z,98687.00
2023-04-02T05:44:47.938Z,98685.00
2023-04-02T05:45:47.963Z,98689.00
2023-04-02T05:46:48.010Z,98691.00
2023-04-02T05:47:48.037Z,98693.00
2023-04-02T05:48:48.001Z,98694.00
2023-04-02T05:49:47.994Z,98697.00
2023-04-02T05:50:48.016Z,98701.00
2023-04-02T05:51:48.032Z,98698.00
2023-04-02T05:52:48.053Z,98701.00
2023-04-02T05:53:48.083Z,98702.00
2023-04-02T05:54:48.100Z,98701.00
2023-04-02T05:55:48.130Z,98705.00
2023-04-02T05:56:48.182Z,98706.00
2023-04-02T05:58:01.312Z,98706.00
2023-04-02T05:58:48.262Z,98710.00
2023-04-02T05:59:48.178Z,98710.00
2023-04-02T06:00:48.213Z,98711.00
2023-04-02T06:01:48.208Z,98708.00
2023-04-02T06:02:48.230Z,98713.00
2023-04-02T06:03:48.475Z,98716.00
2023-04-02T06:04:48.229Z,98717.00
2023-04-02T06:05:48.258Z,98718.00
2023-04-02T06:06:48.244Z,98718.00
2023-04-02T06:07:48.267Z,98724.00
2023-04-02T06:08:48.268Z,98719.00
2023-04-02T06:09:48.292Z,98720.00
2023-04-02T06:10:48.342Z,98726.00
2023-04-02T06:11:48.338Z,98725.00
2023-04-02T06:12:48.323Z,98729.00
2023-04-02T06:13:48.348Z,98731.00
2023-04-02T06:14:48.417Z,98736.00
2023-04-02T06:15:48.407Z,98735.00
2023-04-02T06:16:48.413Z,98746.00
2023-04-02T06:17:48.432Z,98761.00
2023-04-02T06:18:48.433Z,98761.00
2023-04-02T06:19:48.421Z,98758.00
2023-04-02T06:20:48.417Z,98768.00
2023-04-02T06:21:48.442Z,98768.00
2023-04-02T06:22:48.447Z,98769.00
2023-04-02T06:23:48.447Z,98768.00
2023-04-02T06:24:48.460Z,98772.00
2023-04-02T06:25:48.493Z,98778.00
2023-04-02T06:26:48.553Z,98781.00
2023-04-02T06:27:48.563Z,98783.00
2023-04-02T06:28:48.789Z,98781.00
2023-04-02T06:29:48.586Z,98784.00
2023-04-02T06:30:48.632Z,98789.00
2023-04-02T06:31:49.482Z,98792.00
2023-04-02T06:32:48.701Z,98789.00
2023-04-02T06:33:48.618Z,98800.00
2023-04-02T06:34:48.654Z,98799.00
2023-04-02T06:35:48.708Z,98802.00
2023-04-02T06:36:48.712Z,98800.00
2023-04-02T06:37:48.732Z,98803.00
2023-04-02T06:38:48.757Z,98809.00
2023-04-02T06:39:48.781Z,98811.00
2023-04-02T06:40:48.803Z,98815.00
2023-04-02T06:41:48.832Z,98814.00
2023-04-02T06:42:48.854Z,98812.00
2023-04-02T06:43:48.878Z,98820.00
2023-04-02T06:44:48.900Z,98817.00
2023-04-02T06:45:48.935Z,98827.00
2023-04-02T06:46:51.080Z,98827.00
2023-04-02T06:47:49.052Z,98826.00
2023-04-02T06:48:48.917Z,98829.00
2023-04-02T06:49:48.941Z,98832.00
2023-04-02T06:50:48.981Z,98835.00
2023-04-02T06:51:48.962Z,98835.00
2023-04-02T06:52:48.993Z,98834.00
2023-04-02T06:53:49.024Z,98839.00
2023-04-02T06:54:49.080Z,98838.00
2023-04-02T06:55:49.054Z,98843.00
2023-04-02T06:56:49.117Z,98843.00
2023-04-02T06:57:49.116Z,98843.00
2023-04-02T06:58:49.124Z,98852.00
2023-04-02T06:59:49.108Z,98853.00
2023-04-02T07:00:49.132Z,98857.00
2023-04-02T07:01:49.320Z,98855.00
2023-04-02T07:02:49.182Z,98856.00
2023-04-02T07:03:49.190Z,98857.00
2023-04-02T07:04:49.171Z,98866.00
2023-04-02T07:05:49.165Z,98863.00
2023-04-02T07:06:49.188Z,98866.00
2023-04-02T07:07:49.213Z,98869.00
2023-04-02T07:08:49.261Z,98872.00
2023-04-02T07:09:49.249Z,98875.00
2023-04-02T07:10:49.279Z,98874.00
2023-04-02T07:11:49.304Z,98879.00
2023-04-02T07:12:49.287Z,98884.00
2023-04-02T07:13:49.339Z,98882.00
2023-04-02T07:14:49.323Z,98887.00
2023-04-02T07:15:49.364Z,98888.00
2023-04-02T07:16:49.366Z,98889.00
2023-04-02T07:17:49.384Z,98888.00
2023-04-02T07:18:49.410Z,98890.00
2023-04-02T07:19:49.442Z,98894.00
2023-04-02T07:20:49.383Z,98900.00
2023-04-02T07:21:49.415Z,98898.00
2023-04-02T07:22:49.441Z,98904.00
2023-04-02T07:23:49.434Z,98902.00
2023-04-02T07:24:49.429Z,98904.00
2023-04-02T07:25:49.406Z,98903.00
2023-04-02T07:26:49.441Z,98908.00
2023-04-02T07:27:49.703Z,98905.00
2023-04-02T07:28:49.453Z,98907.00
2023-04-02T07:29:49.490Z,98910.00
2023-04-02T07:30:49.473Z,98910.00
2023-04-02T07:31:49.622Z,98914.00
2023-04-02T07:32:49.549Z,98917.00
2023-04-02T07:33:49.520Z,98920.00
2023-04-02T07:34:49.527Z,98922.00
2023-04-02T07:35:49.514Z,98927.00
2023-04-02T07:36:49.495Z,98923.00
2023-04-02T07:37:49.528Z,98937.00
2023-04-02T07:38:49.578Z,98933.00
2023-04-02T07:39:49.558Z,98936.00
2023-04-02T07:40:49.583Z,98932.00
2023-04-02T07:41:49.567Z,98938.00
2023-04-02T07:42:49.603Z,98941.00
2023-04-02T07:43:49.611Z,98944.00
2023-04-02T07:44:49.588Z,98948.00
2023-04-02T07:45:49.618Z,98944.00
2023-04-02T07:46:49.720Z,98941.00
2023-04-02T07:47:49.728Z,98947.00
2023-04-02T07:48:49.691Z,98949.00
2023-04-02T07:49:49.674Z,98952.00
2023-04-02T07:50:49.731Z,98952.00
2023-04-02T07:51:49.688Z,98954.00
2023-04-02T07:52:49.721Z,98954.00
2023-04-02T07:53:49.749Z,98961.00
2023-04-02T07:54:49.735Z,98959.00
2023-04-02T07:55:49.769Z,98961.00
2023-04-02T07:56:49.834Z,98966.00
2023-04-02T07:57:49.827Z,98968.00
2023-04-02T07:58:49.828Z,98969.00
2023-04-02T07:59:49.826Z,98973.00
2023-04-02T08:00:49.806Z,98977.00
2023-04-02T08:01:49.869Z,98979.00
2023-04-02T08:02:49.857Z,98987.00
2023-04-02T08:03:51.661Z,98984.00
2023-04-02T08:04:49.836Z,98986.00
2023-04-02T08:05:49.873Z,98982.00
2023-04-02T08:06:49.917Z,98989.00
2023-04-02T08:07:49.888Z,98991.00
2023-04-02T08:08:49.945Z,98993.00
2023-04-02T08:09:49.928Z,98999.00
2023-04-02T08:10:49.949Z,99004.00
2023-04-02T08:11:49.963Z,99000.00
2023-04-02T08:12:49.997Z,99002.00
2023-04-02T08:13:50.052Z,99007.00
2023-04-02T08:14:50.069Z,99010.00
2023-04-02T08:15:50.047Z,99008.00
2023-04-02T08:16:50.109Z,99007.00
2023-04-02T08:17:50.195Z,99013.00
2023-04-02T08:18:50.081Z,99015.00
2023-04-02T08:19:55.039Z,99022.00
2023-04-02T08:20:50.098Z,99021.00
2023-04-02T08:21:50.114Z,99028.00
2023-04-02T08:22:50.157Z,99025.00
2023-04-02T08:23:50.157Z,99023.00
2023-04-02T08:24:50.420Z,99028.00
2023-04-02T08:25:50.175Z,99029.00
2023-04-02T08:26:50.162Z,99031.00
2023-04-02T08:27:50.194Z,99036.00
2023-04-02T08:28:50.206Z,99034.00
2023-04-02T08:29:50.187Z,99040.00
2023-04-02T08:30:50.280Z,99037.00
2023-04-02T08:31:50.218Z,99039.00
2023-04-02T08:32:50.243Z,99042.00
2023-04-02T08:33:50.317Z,99045.00
2023-04-02T08:34:50.250Z,99048.00
2023-04-02T08:35:50.281Z,99049.00
2023-04-02T08:36:50.234Z,99053.00
2023-04-02T08:37:50.218Z,99052.00
2023-04-02T08:38:50.270Z,99058.00
2023-04-02T08:39:50.250Z,99054.00
2023-04-02T08:40:50.280Z,99054.00
2023-04-02T08:41:50.316Z,99063.00
2023-04-02T08:42:50.292Z,99059.00
2023-04-02T08:43:50.329Z,99061.00
2023-04-02T08:44:50.321Z,99065.00
2023-04-02T08:45:50.389Z,99066.00
2023-04-02T08:46:50.335Z,99072.00
2023-04-02T08:47:50.368Z,99075.00
2023-04-02T08:48:50.397Z,99072.00
2023-04-02T08:49:50.400Z,99079.00
2023-04-02T08:50:50.384Z,99077.00
2023-04-02T08:51:50.413Z,99082.00
2023-04-02T08:52:50.405Z,99081.00
2023-04-02T08:53:50.431Z,99080.00
2023-04-02T08:54:50.455Z,99083.00
2023-04-02T08:55:50.443Z,99085.00
2023-04-02T08:56:50.436Z,99086.00
2023-04-02T08:57:50.459Z,99093.00
2023-04-02T08:58:50.727Z,99089.00
2023-04-02T08:59:50.500Z,99099.00
2023-04-02T09:00:50.486Z,99096.00
2023-04-02T09:01:50.559Z,99096.00
2023-04-02T09:02:50.593Z,99103.00
2023-04-02T09:03:50.535Z,99097.00
2023-04-02T09:04:50.632Z,99107.00
2023-04-02T09:05:50.563Z,99105.00
2023-04-02T09:06:50.596Z,99103.00
2023-04-02T09:07:50.602Z,99107.00
2023-04-02T09:08:50.632Z,99110.00
2023-04-02T09:09:50.625Z,99115.00
2023-04-02T09:10:50.652Z,99114.00
2023-04-02T09:11:50.666Z,99115.00
2023-04-02T09:12:50.649Z,99116.00
2023-04-02T09:13:50.643Z,99119.00
2023-04-02T09:14:50.664Z,99122.00
2023-04-02T09:15:50.770Z,99122.00
2023-04-02T09:16:50.724Z,99118.00
2023-04-02T09:17:54.092Z,99124.00
2023-04-02T09:18:50.711Z,99126.00
2023-04-02T09:19:50.756Z,99130.00
2023-04-02T09:20:50.771Z,99133.00
2023-04-02T09:21:50.822Z,99133.00
2023-04-02T09:22:50.804Z,99132.00
2023-04-02T09:23:50.793Z,99132.00
2023-04-02T09:24:50.815Z,99136.00
2023-04-02T09:26:01.336Z,99140.00
2023-04-02T09:26:50.894Z,99141.00
2023-04-02T09:27:50.890Z,99145.00
2023-04-02T09:28:50.876Z,99149.00
2023-04-02T09:29:50.900Z,99149.00
2023-04-02T09:30:50.889Z,99151.00
2023-04-02T09:31:50.978Z,99150.00
2023-04-02T09:32:51.097Z,99151.00
2023-04-02T09:33:50.922Z,99156.00
2023-04-02T09:34:50.920Z,99156.00
2023-04-02T09:35:50.969Z,99157.00
2023-04-02T09:36:50.975Z,99155.00
2023-04-02T09:37:50.952Z,99162.00
2023-04-02T09:38:50.966Z,99166.00
2023-04-02T09:39:50.985Z,99165.00
2023-04-02T09:40:51.034Z,99165.00
2023-04-02T09:42:02.901Z,99171.00
2023-04-02T09:42:51.083Z,99169.00
2023-04-02T09:43:51.067Z,99169.00
2023-04-02T09:44:51.052Z,99174.00
2023-04-02T09:45:51.081Z,99171.00
2023-04-02T09:46:51.092Z,99178.00
2023-04-02T09:47:51.125Z,99184.00
2023-04-02T09:48:51.090Z,99179.00
2023-04-02T09:49:51.125Z,99183.00
2023-04-02T09:50:51.156Z,99186.00
2023-04-02T09:51:51.212Z,99191.00
2023-04-02T09:52:51.192Z,99192.00
2023-04-02T09:53:51.231Z,99199.00
2023-04-02T09:54:51.218Z,99200.00
2023-04-02T09:55:51.241Z,99202.00
2023-04-02T09:56:51.303Z,99203.00
2023-04-02T09:57:51.275Z,99197.00
2023-04-02T09:58:51.305Z,99202.00
2023-04-02T09:59:51.284Z,99201.00
2023-04-02T10:00:51.356Z,99201.00
2023-04-02T10:01:51.339Z,99204.00
2023-04-02T10:02:51.410Z,99201.00
2023-04-02T10:03:51.384Z,99209.00
2023-04-02T10:04:51.388Z,99211.00
2023-04-02T10:05:51.374Z,99216.00
2023-04-02T10:06:51.403Z,99221.00
2023-04-02T10:07:51.399Z,99214.00
2023-04-02T10:08:51.424Z,99215.00
2023-04-02T10:09:51.410Z,99219.00
2023-04-02T10:10:51.459Z,99220.00
2023-04-02T10:11:51.454Z,99221.00
2023-04-02T10:12:51.448Z,99218.00
2023-04-02T10:13:51.488Z,99221.00
2023-04-02T10:14:51.541Z,99221.00
2023-04-02T10:15:51.541Z,99228.00
2023-04-02T10:16:51.610Z,99226.00
2023-04-02T10:17:51.636Z,99225.00
2023-04-02T10:18:51.596Z,99224.00
2023-04-02T10:19:51.627Z,99229.00
2023-04-02T10:20:51.763Z,99229.00
2023-04-02T10:21:51.655Z,99229.00
2023-04-02T10:22:51.685Z,99233.00
2023-04-02T10:23:51.710Z,99236.00
2023-04-02T10:24:51.749Z,99240.00
2023-04-02T10:25:51.742Z,99246.00
2023-04-02T10:26:51.765Z,99250.00
2023-04-02T10:27:51.785Z,99250.00
2023-04-02T10:28:51.794Z,99242.00
2023-04-02T10:29:51.783Z,99246.00
2023-04-02T10:30:51.830Z,99252.00
2023-04-02T10:31:51.790Z,99249.00
2023-04-02T10:32:51.841Z,99255.00
2023-04-02T10:33:51.834Z,99252.00
2023-04-02T10:34:51.864Z,99255.00
2023-04-02T10:35:51.927Z,99256.00
2023-04-02T10:36:51.891Z,99261.00
2023-04-02T10:37:51.915Z,99259.00
2023-04-02T10:38:51.935Z,99259.00
2023-04-02T10:39:52.223Z,99265.00
2023-04-02T10:40:51.978Z,99263.00
2023-04-02T10:41:51.994Z,99267.00
2023-04-02T10:42:52.016Z,99263.00
2023-04-02T10:43:52.043Z,99264.00
2023-04-02T10:44:52.077Z,99272.00
2023-04-02T10:45:52.132Z,99275.00
2023-04-02T10:46:52.132Z,99276.00
2023-04-02T10:47:52.214Z,99272.00
2023-04-02T10:48:52.124Z,99274.00
2023-04-02T10:49:52.234Z,99279.00
2023-04-02T10:50:52.157Z,99276.00
2023-04-02T10:51:52.178Z,99280.00
2023-04-02T10:52:52.207Z,99278.00
2023-04-02T10:53:52.230Z,99282.00
2023-04-02T10:54:52.277Z,99282.00
2023-04-02T10:55:52.258Z,99285.00
2023-04-02T10:56:52.271Z,99287.00
2023-04-02T10:57:52.292Z,99289.00
2023-04-02T10:58:52.330Z,99290.00
2023-04-02T10:59:52.332Z,99295.00
2023-04-02T11:00:52.356Z,99292.00
2023-04-02T11:01:52.416Z,99301.00
2023-04-02T11:02:52.445Z,99299.00
2023-04-02T11:03:52.442Z,99298.00
2023-04-02T11:04:52.374Z,99301.00
2023-04-02T11:05:52.400Z,99301.00
2023-04-02T11:06:58.023Z,99307.00
2023-04-02T11:07:52.381Z,99305.00
2023-04-02T11:08:52.377Z,99307.00
2023-04-02T11:09:52.410Z,99309.00
2023-04-02T11:10:52.397Z,99312.00
2023-04-02T11:11:52.434Z,99314.00
2023-04-02T11:12:52.418Z,99316.00
2023-04-02T11:13:52.455Z,99315.00
2023-04-02T11:14:52.492Z,99315.00
2023-04-02T11:15:52.526Z,99322.00
2023-04-02T11:16:52.495Z,99319.00
2023-04-02T11:17:52.509Z,99321.00
2023-04-02T11:18:52.500Z,99323.00
2023-04-02T11:19:52.471Z,99323.00
2023-04-02T11:20:52.506Z,99322.00
2023-04-02T11:21:59.688Z,99325.00
2023-04-02T11:22:52.544Z,99329.00
2023-04-02T11:23:52.577Z,99331.00
2023-04-02T11:24:52.556Z,99328.00
2023-04-02T11:25:52.587Z,99330.00
2023-04-02T11:26:52.607Z,99330.00
2023-04-02T11:27:52.632Z,99334.00
2023-04-02T11:28:52.681Z,99337.00
2023-04-02T11:29:52.655Z,99335.00
2023-04-02T11:30:52.660Z,99337.00
2023-04-02T11:31:52.807Z,99346.00
2023-04-02T11:32:52.718Z,99344.00
2023-04-02T11:33:52.708Z,99340.00
2023-04-02T11:35:05.210Z,99348.00
2023-04-02T11:35:52.772Z,99352.00
2023-04-02T11:36:52.796Z,99355.00
2023-04-02T11:37:52.800Z,99352.00
2023-04-02T11:38:53.050Z,99357.00
2023-04-02T11:39:52.834Z,99356.00
2023-04-02T11:40:52.870Z,99354.00
2023-04-02T11:41:52.866Z,99352.00
2023-04-02T11:42:52.847Z,99355.00
2023-04-02T11:43:52.871Z,99355.00
2023-04-02T11:44:52.911Z,99358.00